sensor_id;sensor_type;location;lat;lon;timestamp;P1;durP1;ratioP1;P2;durP2;ratioP2
40256;SDS011;25977;45.462;9.210;2023-12-20T00:00:57;30.48;;;18.85;;
40256;SDS011;25977;45.462;9.210;2023-12-20T00:03:23;37.92;;;19.33;;
40256;SDS011;25977;45.462;9.210;2023-12-20T00:05:49;33.10;;;18.27;;
40256;SDS011;25977;45.462;9.210;2023-12-20T00:08:15;34.50;;;19.98;;
40256;SDS011;25977;45.462;9.210;2023-12-20T00:10:41;37.10;;;18.25;;
40256;SDS011;25977;45.462;9.210;2023-12-20T00:13:06;41.42;;;20.35;;
40256;SDS011;25977;45.462;9.210;2023-12-20T00:15:33;29.38;;;18.27;;
40256;SDS011;25977;45.462;9.210;2023-12-20T00:17:59;36.30;;;20.42;;
40256;SDS011;25977;45.462;9.210;2023-12-20T00:20:25;34.03;;;18.95;;
40256;SDS011;25977;45.462;9.210;2023-12-20T00:22:51;30.50;;;18.38;;
40256;SDS011;25977;45.462;9.210;2023-12-20T00:25:18;38.83;;;18.20;;
40256;SDS011;25977;45.462;9.210;2023-12-20T00:27:44;31.27;;;19.13;;
40256;SDS011;25977;45.462;9.210;2023-12-20T00:30:10;32.80;;;17.00;;
40256;SDS011;25977;45.462;9.210;2023-12-20T00:32:36;32.28;;;18.77;;
40256;SDS011;25977;45.462;9.210;2023-12-20T00:35:01;36.10;;;19.55;;
40256;SDS011;25977;45.462;9.210;2023-12-20T00:37:27;30.13;;;17.30;;
40256;SDS011;25977;45.462;9.210;2023-12-20T00:39:53;32.58;;;18.80;;
40256;SDS011;25977;45.462;9.210;2023-12-20T00:42:18;35.00;;;19.55;;
40256;SDS011;25977;45.462;9.210;2023-12-20T00:44:44;35.10;;;19.02;;
40256;SDS011;25977;45.462;9.210;2023-12-20T00:47:10;38.42;;;17.73;;
40256;SDS011;25977;45.462;9.210;2023-12-20T00:49:35;36.03;;;18.27;;
40256;SDS011;25977;45.462;9.210;2023-12-20T00:52:01;35.33;;;18.85;;
40256;SDS011;25977;45.462;9.210;2023-12-20T00:54:27;31.75;;;18.52;;
40256;SDS011;25977;45.462;9.210;2023-12-20T00:56:53;35.50;;;17.48;;
40256;SDS011;25977;45.462;9.210;2023-12-20T00:59:19;35.08;;;20.27;;
40256;SDS011;25977;45.462;9.210;2023-12-20T01:01:45;36.90;;;18.05;;
40256;SDS011;25977;45.462;9.210;2023-12-20T01:04:11;32.58;;;17.02;;
40256;SDS011;25977;45.462;9.210;2023-12-20T01:06:37;33.78;;;17.85;;
40256;SDS011;25977;45.462;9.210;2023-12-20T01:09:03;28.70;;;17.77;;
40256;SDS011;25977;45.462;9.210;2023-12-20T01:11:29;39.35;;;19.70;;
40256;SDS011;25977;45.462;9.210;2023-12-20T01:13:54;32.45;;;18.50;;
40256;SDS011;25977;45.462;9.210;2023-12-20T01:16:20;42.95;;;19.15;;
40256;SDS011;25977;45.462;9.210;2023-12-20T01:18:46;32.53;;;18.23;;
40256;SDS011;25977;45.462;9.210;2023-12-20T01:21:12;36.20;;;18.40;;
40256;SDS011;25977;45.462;9.210;2023-12-20T01:23:37;32.10;;;18.73;;
40256;SDS011;25977;45.462;9.210;2023-12-20T01:26:03;37.67;;;19.23;;
40256;SDS011;25977;45.462;9.210;2023-12-20T01:28:30;30.63;;;18.80;;
40256;SDS011;25977;45.462;9.210;2023-12-20T01:30:56;36.65;;;19.77;;
40256;SDS011;25977;45.462;9.210;2023-12-20T01:33:22;35.17;;;19.92;;
40256;SDS011;25977;45.462;9.210;2023-12-20T01:35:48;40.40;;;19.55;;
40256;SDS011;25977;45.462;9.210;2023-12-20T01:38:14;33.65;;;19.58;;
40256;SDS011;25977;45.462;9.210;2023-12-20T01:40:39;31.80;;;21.20;;
40256;SDS011;25977;45.462;9.210;2023-12-20T01:43:07;33.60;;;18.20;;
40256;SDS011;25977;45.462;9.210;2023-12-20T01:45:33;29.23;;;18.95;;
40256;SDS011;25977;45.462;9.210;2023-12-20T01:47:59;27.98;;;18.10;;
40256;SDS011;25977;45.462;9.210;2023-12-20T01:50:27;34.40;;;19.00;;
40256;SDS011;25977;45.462;9.210;2023-12-20T01:52:53;31.00;;;17.95;;
40256;SDS011;25977;45.462;9.210;2023-12-20T01:55:23;30.05;;;19.17;;
40256;SDS011;25977;45.462;9.210;2023-12-20T01:57:49;31.23;;;19.30;;
40256;SDS011;25977;45.462;9.210;2023-12-20T02:00:16;40.75;;;20.70;;
40256;SDS011;25977;45.462;9.210;2023-12-20T02:02:43;32.13;;;18.25;;
40256;SDS011;25977;45.462;9.210;2023-12-20T02:05:10;30.58;;;18.83;;
40256;SDS011;25977;45.462;9.210;2023-12-20T02:07:36;29.88;;;18.75;;
40256;SDS011;25977;45.462;9.210;2023-12-20T02:10:02;33.47;;;18.02;;
40256;SDS011;25977;45.462;9.210;2023-12-20T02:12:29;34.65;;;18.83;;
40256;SDS011;25977;45.462;9.210;2023-12-20T02:14:55;29.98;;;19.50;;
40256;SDS011;25977;45.462;9.210;2023-12-20T02:17:21;31.05;;;17.50;;
40256;SDS011;25977;45.462;9.210;2023-12-20T02:19:47;28.85;;;17.75;;
40256;SDS011;25977;45.462;9.210;2023-12-20T02:22:13;34.35;;;18.45;;
40256;SDS011;25977;45.462;9.210;2023-12-20T02:24:38;36.80;;;19.52;;
40256;SDS011;25977;45.462;9.210;2023-12-20T02:27:08;29.13;;;17.88;;
40256;SDS011;25977;45.462;9.210;2023-12-20T02:29:34;33.83;;;18.92;;
40256;SDS011;25977;45.462;9.210;2023-12-20T02:32:00;28.88;;;19.48;;
40256;SDS011;25977;45.462;9.210;2023-12-20T02:34:26;29.58;;;18.63;;
40256;SDS011;25977;45.462;9.210;2023-12-20T02:36:52;25.27;;;16.75;;
40256;SDS011;25977;45.462;9.210;2023-12-20T02:39:18;38.95;;;18.10;;
40256;SDS011;25977;45.462;9.210;2023-12-20T02:41:44;34.67;;;19.60;;
40256;SDS011;25977;45.462;9.210;2023-12-20T02:44:10;38.10;;;18.35;;
40256;SDS011;25977;45.462;9.210;2023-12-20T02:46:36;32.33;;;19.30;;
40256;SDS011;25977;45.462;9.210;2023-12-20T02:49:01;33.33;;;18.38;;
40256;SDS011;25977;45.462;9.210;2023-12-20T02:51:27;28.25;;;17.90;;
40256;SDS011;25977;45.462;9.210;2023-12-20T02:53:53;27.70;;;18.30;;
40256;SDS011;25977;45.462;9.210;2023-12-20T02:56:19;27.77;;;17.75;;
40256;SDS011;25977;45.462;9.210;2023-12-20T02:58:45;26.58;;;17.35;;
40256;SDS011;25977;45.462;9.210;2023-12-20T03:01:10;29.20;;;18.10;;
40256;SDS011;25977;45.462;9.210;2023-12-20T03:03:37;26.83;;;17.95;;
40256;SDS011;25977;45.462;9.210;2023-12-20T03:06:02;25.45;;;17.02;;
40256;SDS011;25977;45.462;9.210;2023-12-20T03:08:28;28.88;;;17.95;;
40256;SDS011;25977;45.462;9.210;2023-12-20T03:10:54;34.70;;;20.10;;
40256;SDS011;25977;45.462;9.210;2023-12-20T03:13:19;30.10;;;20.38;;
40256;SDS011;25977;45.462;9.210;2023-12-20T03:15:45;30.73;;;17.77;;
40256;SDS011;25977;45.462;9.210;2023-12-20T03:18:11;29.65;;;17.33;;
40256;SDS011;25977;45.462;9.210;2023-12-20T03:20:37;28.42;;;17.63;;
40256;SDS011;25977;45.462;9.210;2023-12-20T03:23:03;26.63;;;17.10;;
40256;SDS011;25977;45.462;9.210;2023-12-20T03:25:28;27.15;;;15.93;;
40256;SDS011;25977;45.462;9.210;2023-12-20T03:27:54;29.75;;;17.58;;
40256;SDS011;25977;45.462;9.210;2023-12-20T03:30:20;29.42;;;16.75;;
40256;SDS011;25977;45.462;9.210;2023-12-20T03:32:46;28.15;;;16.30;;
40256;SDS011;25977;45.462;9.210;2023-12-20T03:35:12;31.25;;;16.88;;
40256;SDS011;25977;45.462;9.210;2023-12-20T03:37:38;27.35;;;17.15;;
40256;SDS011;25977;45.462;9.210;2023-12-20T03:40:04;27.02;;;15.73;;
40256;SDS011;25977;45.462;9.210;2023-12-20T03:42:31;28.55;;;16.05;;
40256;SDS011;25977;45.462;9.210;2023-12-20T03:44:56;28.15;;;17.45;;
40256;SDS011;25977;45.462;9.210;2023-12-20T03:47:22;30.65;;;16.73;;
40256;SDS011;25977;45.462;9.210;2023-12-20T03:49:47;25.48;;;15.98;;
40256;SDS011;25977;45.462;9.210;2023-12-20T03:52:13;31.15;;;17.48;;
40256;SDS011;25977;45.462;9.210;2023-12-20T03:54:39;24.48;;;15.80;;
40256;SDS011;25977;45.462;9.210;2023-12-20T03:57:07;25.67;;;16.13;;
40256;SDS011;25977;45.462;9.210;2023-12-20T03:59:39;23.23;;;15.88;;
40256;SDS011;25977;45.462;9.210;2023-12-20T04:02:04;30.40;;;18.53;;
40256;SDS011;25977;45.462;9.210;2023-12-20T04:04:30;23.55;;;16.33;;
40256;SDS011;25977;45.462;9.210;2023-12-20T04:06:56;29.17;;;16.63;;
40256;SDS011;25977;45.462;9.210;2023-12-20T04:09:21;28.67;;;17.75;;
40256;SDS011;25977;45.462;9.210;2023-12-20T04:11:47;25.92;;;17.02;;
40256;SDS011;25977;45.462;9.210;2023-12-20T04:14:13;25.88;;;15.93;;
40256;SDS011;25977;45.462;9.210;2023-12-20T04:16:39;23.52;;;16.58;;
40256;SDS011;25977;45.462;9.210;2023-12-20T04:19:04;25.42;;;16.52;;
40256;SDS011;25977;45.462;9.210;2023-12-20T04:21:30;26.25;;;18.27;;
40256;SDS011;25977;45.462;9.210;2023-12-20T04:23:56;27.13;;;16.98;;
40256;SDS011;25977;45.462;9.210;2023-12-20T04:26:21;31.58;;;18.30;;
40256;SDS011;25977;45.462;9.210;2023-12-20T04:28:47;25.75;;;16.38;;
40256;SDS011;25977;45.462;9.210;2023-12-20T04:31:13;22.20;;;15.90;;
40256;SDS011;25977;45.462;9.210;2023-12-20T04:33:38;27.38;;;17.05;;
40256;SDS011;25977;45.462;9.210;2023-12-20T04:36:04;25.35;;;15.38;;
40256;SDS011;25977;45.462;9.210;2023-12-20T04:38:30;25.85;;;16.55;;
40256;SDS011;25977;45.462;9.210;2023-12-20T04:40:55;27.98;;;17.92;;
40256;SDS011;25977;45.462;9.210;2023-12-20T04:43:21;26.77;;;17.33;;
40256;SDS011;25977;45.462;9.210;2023-12-20T04:45:47;28.67;;;17.15;;
40256;SDS011;25977;45.462;9.210;2023-12-20T04:48:13;32.08;;;19.25;;
40256;SDS011;25977;45.462;9.210;2023-12-20T04:50:38;34.00;;;19.42;;
40256;SDS011;25977;45.462;9.210;2023-12-20T04:53:04;29.90;;;20.58;;
40256;SDS011;25977;45.462;9.210;2023-12-20T04:55:30;37.80;;;19.80;;
40256;SDS011;25977;45.462;9.210;2023-12-20T04:57:55;30.17;;;18.83;;
40256;SDS011;25977;45.462;9.210;2023-12-20T05:00:21;36.47;;;19.25;;
40256;SDS011;25977;45.462;9.210;2023-12-20T05:02:47;29.58;;;18.70;;
40256;SDS011;25977;45.462;9.210;2023-12-20T05:05:13;32.35;;;21.42;;
40256;SDS011;25977;45.462;9.210;2023-12-20T05:07:40;31.25;;;20.50;;
40256;SDS011;25977;45.462;9.210;2023-12-20T05:10:06;34.60;;;22.35;;
40256;SDS011;25977;45.462;9.210;2023-12-20T05:12:33;41.60;;;21.80;;
40256;SDS011;25977;45.462;9.210;2023-12-20T05:14:59;31.40;;;20.52;;
40256;SDS011;25977;45.462;9.210;2023-12-20T05:17:25;40.50;;;21.10;;
40256;SDS011;25977;45.462;9.210;2023-12-20T05:19:51;34.17;;;20.27;;
40256;SDS011;25977;45.462;9.210;2023-12-20T05:22:16;36.85;;;22.42;;
40256;SDS011;25977;45.462;9.210;2023-12-20T05:24:43;34.65;;;22.13;;
40256;SDS011;25977;45.462;9.210;2023-12-20T05:27:09;37.05;;;23.02;;
40256;SDS011;25977;45.462;9.210;2023-12-20T05:29:34;30.80;;;22.33;;
40256;SDS011;25977;45.462;9.210;2023-12-20T05:32:00;34.47;;;20.83;;
40256;SDS011;25977;45.462;9.210;2023-12-20T05:34:25;34.33;;;21.77;;
40256;SDS011;25977;45.462;9.210;2023-12-20T05:36:51;28.83;;;19.85;;
40256;SDS011;25977;45.462;9.210;2023-12-20T05:39:17;34.17;;;21.15;;
40256;SDS011;25977;45.462;9.210;2023-12-20T05:41:43;32.67;;;19.77;;
40256;SDS011;25977;45.462;9.210;2023-12-20T05:44:08;26.95;;;20.65;;
40256;SDS011;25977;45.462;9.210;2023-12-20T05:46:35;34.58;;;19.73;;
40256;SDS011;25977;45.462;9.210;2023-12-20T05:49:01;28.92;;;19.52;;
40256;SDS011;25977;45.462;9.210;2023-12-20T05:51:27;33.13;;;21.27;;
40256;SDS011;25977;45.462;9.210;2023-12-20T05:53:53;31.90;;;19.83;;
40256;SDS011;25977;45.462;9.210;2023-12-20T05:56:18;37.38;;;21.55;;
40256;SDS011;25977;45.462;9.210;2023-12-20T05:58:44;31.27;;;20.38;;
40256;SDS011;25977;45.462;9.210;2023-12-20T06:01:10;36.80;;;20.52;;
40256;SDS011;25977;45.462;9.210;2023-12-20T06:03:35;40.33;;;21.25;;
40256;SDS011;25977;45.462;9.210;2023-12-20T06:06:07;35.72;;;21.98;;
40256;SDS011;25977;45.462;9.210;2023-12-20T06:08:33;36.40;;;22.83;;
40256;SDS011;25977;45.462;9.210;2023-12-20T06:10:59;40.80;;;20.55;;
40256;SDS011;25977;45.462;9.210;2023-12-20T06:13:25;40.20;;;22.92;;
40256;SDS011;25977;45.462;9.210;2023-12-20T06:15:51;36.30;;;22.55;;
40256;SDS011;25977;45.462;9.210;2023-12-20T06:18:19;34.15;;;21.38;;
40256;SDS011;25977;45.462;9.210;2023-12-20T06:20:44;30.55;;;20.85;;
40256;SDS011;25977;45.462;9.210;2023-12-20T06:23:10;31.25;;;20.58;;
40256;SDS011;25977;45.462;9.210;2023-12-20T06:25:36;30.92;;;19.77;;
40256;SDS011;25977;45.462;9.210;2023-12-20T06:28:01;33.50;;;21.02;;
40256;SDS011;25977;45.462;9.210;2023-12-20T06:30:27;33.67;;;19.40;;
40256;SDS011;25977;45.462;9.210;2023-12-20T06:32:53;41.00;;;23.63;;
40256;SDS011;25977;45.462;9.210;2023-12-20T06:35:20;36.40;;;21.08;;
40256;SDS011;25977;45.462;9.210;2023-12-20T06:37:45;30.70;;;19.23;;
40256;SDS011;25977;45.462;9.210;2023-12-20T06:40:11;36.58;;;20.00;;
40256;SDS011;25977;45.462;9.210;2023-12-20T06:42:37;31.27;;;19.80;;
40256;SDS011;25977;45.462;9.210;2023-12-20T06:45:03;31.20;;;19.15;;
40256;SDS011;25977;45.462;9.210;2023-12-20T06:47:29;28.23;;;19.52;;
40256;SDS011;25977;45.462;9.210;2023-12-20T06:49:55;30.63;;;19.35;;
40256;SDS011;25977;45.462;9.210;2023-12-20T06:52:21;33.05;;;20.25;;
40256;SDS011;25977;45.462;9.210;2023-12-20T06:54:47;33.15;;;19.95;;
40256;SDS011;25977;45.462;9.210;2023-12-20T06:57:12;26.35;;;17.23;;
40256;SDS011;25977;45.462;9.210;2023-12-20T06:59:41;31.65;;;17.50;;
40256;SDS011;25977;45.462;9.210;2023-12-20T07:02:07;31.23;;;18.67;;
40256;SDS011;25977;45.462;9.210;2023-12-20T07:04:33;27.80;;;16.85;;
40256;SDS011;25977;45.462;9.210;2023-12-20T07:06:59;28.08;;;17.55;;
40256;SDS011;25977;45.462;9.210;2023-12-20T07:09:25;28.13;;;17.38;;
40256;SDS011;25977;45.462;9.210;2023-12-20T07:11:51;38.03;;;19.85;;
40256;SDS011;25977;45.462;9.210;2023-12-20T07:14:17;29.08;;;18.25;;
40256;SDS011;25977;45.462;9.210;2023-12-20T07:16:43;33.17;;;18.75;;
40256;SDS011;25977;45.462;9.210;2023-12-20T07:19:09;31.23;;;17.55;;
40256;SDS011;25977;45.462;9.210;2023-12-20T07:21:34;29.63;;;17.42;;
40256;SDS011;25977;45.462;9.210;2023-12-20T07:24:00;31.48;;;18.55;;
40256;SDS011;25977;45.462;9.210;2023-12-20T07:26:26;33.10;;;18.70;;
40256;SDS011;25977;45.462;9.210;2023-12-20T07:28:51;37.75;;;18.23;;
40256;SDS011;25977;45.462;9.210;2023-12-20T07:31:17;30.45;;;17.67;;
40256;SDS011;25977;45.462;9.210;2023-12-20T07:33:43;29.33;;;17.33;;
40256;SDS011;25977;45.462;9.210;2023-12-20T07:36:08;33.47;;;17.60;;
40256;SDS011;25977;45.462;9.210;2023-12-20T07:38:34;29.73;;;17.80;;
40256;SDS011;25977;45.462;9.210;2023-12-20T07:41:00;28.52;;;17.70;;
40256;SDS011;25977;45.462;9.210;2023-12-20T07:43:25;36.10;;;20.25;;
40256;SDS011;25977;45.462;9.210;2023-12-20T07:45:51;26.83;;;17.88;;
40256;SDS011;25977;45.462;9.210;2023-12-20T07:48:17;38.55;;;20.25;;
40256;SDS011;25977;45.462;9.210;2023-12-20T07:50:42;33.17;;;17.98;;
40256;SDS011;25977;45.462;9.210;2023-12-20T07:53:08;31.15;;;18.63;;
40256;SDS011;25977;45.462;9.210;2023-12-20T07:55:34;32.05;;;18.98;;
40256;SDS011;25977;45.462;9.210;2023-12-20T07:57:59;43.22;;;19.45;;
40256;SDS011;25977;45.462;9.210;2023-12-20T08:00:26;30.38;;;18.48;;
40256;SDS011;25977;45.462;9.210;2023-12-20T08:02:52;32.47;;;18.77;;
40256;SDS011;25977;45.462;9.210;2023-12-20T08:05:18;40.17;;;21.05;;
40256;SDS011;25977;45.462;9.210;2023-12-20T08:07:43;30.55;;;18.25;;
40256;SDS011;25977;45.462;9.210;2023-12-20T08:10:09;34.53;;;19.73;;
40256;SDS011;25977;45.462;9.210;2023-12-20T08:12:36;33.25;;;20.15;;
40256;SDS011;25977;45.462;9.210;2023-12-20T08:15:02;28.50;;;18.33;;
40256;SDS011;25977;45.462;9.210;2023-12-20T08:17:29;40.50;;;20.42;;
40256;SDS011;25977;45.462;9.210;2023-12-20T08:19:54;37.13;;;18.90;;
40256;SDS011;25977;45.462;9.210;2023-12-20T08:22:20;38.42;;;20.25;;
40256;SDS011;25977;45.462;9.210;2023-12-20T08:24:46;42.42;;;21.10;;
40256;SDS011;25977;45.462;9.210;2023-12-20T08:27:12;39.65;;;21.13;;
40256;SDS011;25977;45.462;9.210;2023-12-20T08:29:37;38.95;;;20.25;;
40256;SDS011;25977;45.462;9.210;2023-12-20T08:32:03;43.78;;;21.50;;
40256;SDS011;25977;45.462;9.210;2023-12-20T08:34:29;42.15;;;23.10;;
40256;SDS011;25977;45.462;9.210;2023-12-20T08:36:55;34.13;;;20.48;;
40256;SDS011;25977;45.462;9.210;2023-12-20T08:39:21;35.90;;;20.77;;
40256;SDS011;25977;45.462;9.210;2023-12-20T08:41:46;38.08;;;20.95;;
40256;SDS011;25977;45.462;9.210;2023-12-20T08:44:12;47.30;;;21.70;;
40256;SDS011;25977;45.462;9.210;2023-12-20T08:46:38;39.42;;;20.80;;
40256;SDS011;25977;45.462;9.210;2023-12-20T08:49:04;35.85;;;22.25;;
40256;SDS011;25977;45.462;9.210;2023-12-20T08:51:30;37.35;;;21.40;;
40256;SDS011;25977;45.462;9.210;2023-12-20T08:53:55;33.88;;;20.90;;
40256;SDS011;25977;45.462;9.210;2023-12-20T08:56:21;36.50;;;22.25;;
40256;SDS011;25977;45.462;9.210;2023-12-20T08:58:47;38.85;;;21.27;;
40256;SDS011;25977;45.462;9.210;2023-12-20T09:01:12;36.28;;;20.58;;
40256;SDS011;25977;45.462;9.210;2023-12-20T09:03:39;42.45;;;22.25;;
40256;SDS011;25977;45.462;9.210;2023-12-20T09:06:05;33.03;;;20.63;;
40256;SDS011;25977;45.462;9.210;2023-12-20T09:08:31;36.50;;;21.20;;
40256;SDS011;25977;45.462;9.210;2023-12-20T09:10:57;32.58;;;21.02;;
40256;SDS011;25977;45.462;9.210;2023-12-20T09:13:23;37.67;;;20.65;;
40256;SDS011;25977;45.462;9.210;2023-12-20T09:15:56;34.80;;;19.42;;
40256;SDS011;25977;45.462;9.210;2023-12-20T09:18:22;34.70;;;20.80;;
40256;SDS011;25977;45.462;9.210;2023-12-20T09:20:48;41.00;;;21.80;;
40256;SDS011;25977;45.462;9.210;2023-12-20T09:23:14;35.85;;;21.08;;
40256;SDS011;25977;45.462;9.210;2023-12-20T09:25:40;37.85;;;20.20;;
40256;SDS011;25977;45.462;9.210;2023-12-20T09:28:05;36.88;;;21.00;;
40256;SDS011;25977;45.462;9.210;2023-12-20T09:30:31;37.45;;;21.05;;
40256;SDS011;25977;45.462;9.210;2023-12-20T09:32:57;32.85;;;19.70;;
40256;SDS011;25977;45.462;9.210;2023-12-20T09:35:22;39.10;;;21.90;;
40256;SDS011;25977;45.462;9.210;2023-12-20T09:37:48;31.15;;;19.75;;
40256;SDS011;25977;45.462;9.210;2023-12-20T09:40:14;28.15;;;19.35;;
40256;SDS011;25977;45.462;9.210;2023-12-20T09:42:53;36.22;;;21.95;;
40256;SDS011;25977;45.462;9.210;2023-12-20T09:45:21;37.40;;;20.20;;
40256;SDS011;25977;45.462;9.210;2023-12-20T09:47:48;36.20;;;20.45;;
40256;SDS011;25977;45.462;9.210;2023-12-20T09:50:15;36.60;;;21.88;;
40256;SDS011;25977;45.462;9.210;2023-12-20T09:52:50;30.45;;;21.13;;
40256;SDS011;25977;45.462;9.210;2023-12-20T09:55:17;37.45;;;20.85;;
40256;SDS011;25977;45.462;9.210;2023-12-20T09:57:44;34.80;;;20.40;;
40256;SDS011;25977;45.462;9.210;2023-12-20T10:00:11;31.40;;;19.55;;
40256;SDS011;25977;45.462;9.210;2023-12-20T10:02:38;34.00;;;20.48;;
40256;SDS011;25977;45.462;9.210;2023-12-20T10:05:14;34.67;;;19.65;;
40256;SDS011;25977;45.462;9.210;2023-12-20T10:07:45;32.30;;;20.52;;
40256;SDS011;25977;45.462;9.210;2023-12-20T10:10:12;32.83;;;20.35;;
40256;SDS011;25977;45.462;9.210;2023-12-20T10:12:39;34.35;;;19.83;;
40256;SDS011;25977;45.462;9.210;2023-12-20T10:15:05;37.63;;;22.40;;
40256;SDS011;25977;45.462;9.210;2023-12-20T10:17:31;36.13;;;20.30;;
40256;SDS011;25977;45.462;9.210;2023-12-20T10:19:57;36.60;;;21.20;;
40256;SDS011;25977;45.462;9.210;2023-12-20T10:22:24;34.38;;;20.50;;
40256;SDS011;25977;45.462;9.210;2023-12-20T10:24:50;33.42;;;21.98;;
40256;SDS011;25977;45.462;9.210;2023-12-20T10:27:16;35.75;;;22.33;;
40256;SDS011;25977;45.462;9.210;2023-12-20T10:29:44;36.95;;;22.73;;
40256;SDS011;25977;45.462;9.210;2023-12-20T10:32:43;31.85;;;20.13;;
40256;SDS011;25977;45.462;9.210;2023-12-20T10:35:03;31.67;;;19.45;;
40256;SDS011;25977;45.462;9.210;2023-12-20T10:37:29;39.50;;;22.50;;
40256;SDS011;25977;45.462;9.210;2023-12-20T10:39:55;31.63;;;19.95;;
40256;SDS011;25977;45.462;9.210;2023-12-20T10:42:22;31.25;;;20.75;;
40256;SDS011;25977;45.462;9.210;2023-12-20T10:44:51;33.72;;;21.60;;
40256;SDS011;25977;45.462;9.210;2023-12-20T10:47:19;35.88;;;22.55;;
40256;SDS011;25977;45.462;9.210;2023-12-20T10:49:45;35.83;;;21.80;;
40256;SDS011;25977;45.462;9.210;2023-12-20T10:52:12;38.42;;;23.23;;
40256;SDS011;25977;45.462;9.210;2023-12-20T10:54:39;33.83;;;20.52;;
40256;SDS011;25977;45.462;9.210;2023-12-20T10:57:06;31.70;;;21.45;;
40256;SDS011;25977;45.462;9.210;2023-12-20T10:59:33;36.15;;;21.33;;
40256;SDS011;25977;45.462;9.210;2023-12-20T11:02:02;33.90;;;22.30;;
40256;SDS011;25977;45.462;9.210;2023-12-20T11:04:39;38.63;;;24.90;;
40256;SDS011;25977;45.462;9.210;2023-12-20T11:07:49;38.28;;;23.40;;
40256;SDS011;25977;45.462;9.210;2023-12-20T11:09:59;31.30;;;22.00;;
40256;SDS011;25977;45.462;9.210;2023-12-20T11:12:44;33.42;;;22.92;;
40256;SDS011;25977;45.462;9.210;2023-12-20T11:15:39;33.05;;;22.08;;
40256;SDS011;25977;45.462;9.210;2023-12-20T11:18:05;34.63;;;23.05;;
40256;SDS011;25977;45.462;9.210;2023-12-20T11:20:38;29.17;;;21.67;;
40256;SDS011;25977;45.462;9.210;2023-12-20T11:23:05;41.10;;;23.98;;
40256;SDS011;25977;45.462;9.210;2023-12-20T11:28:23;32.05;;;21.17;;
40256;SDS011;25977;45.462;9.210;2023-12-20T11:33:22;32.08;;;19.67;;
40256;SDS011;25977;45.462;9.210;2023-12-20T11:35:49;29.25;;;21.35;;
40256;SDS011;25977;45.462;9.210;2023-12-20T11:38:15;33.47;;;20.27;;
40256;SDS011;25977;45.462;9.210;2023-12-20T11:40:41;30.58;;;21.00;;
40256;SDS011;25977;45.462;9.210;2023-12-20T11:43:08;38.92;;;22.95;;
40256;SDS011;25977;45.462;9.210;2023-12-20T11:45:34;26.83;;;19.70;;
40256;SDS011;25977;45.462;9.210;2023-12-20T11:48:01;32.15;;;20.17;;
40256;SDS011;25977;45.462;9.210;2023-12-20T11:50:33;32.65;;;20.75;;
40256;SDS011;25977;45.462;9.210;2023-12-20T11:52:59;34.40;;;21.98;;
40256;SDS011;25977;45.462;9.210;2023-12-20T11:55:24;30.52;;;20.05;;
40256;SDS011;25977;45.462;9.210;2023-12-20T11:57:50;30.67;;;20.35;;
40256;SDS011;25977;45.462;9.210;2023-12-20T12:00:17;32.78;;;20.30;;
40256;SDS011;25977;45.462;9.210;2023-12-20T12:02:45;36.15;;;21.15;;
40256;SDS011;25977;45.462;9.210;2023-12-20T12:05:20;29.42;;;20.55;;
40256;SDS011;25977;45.462;9.210;2023-12-20T12:07:46;29.42;;;21.00;;
40256;SDS011;25977;45.462;9.210;2023-12-20T12:10:11;25.42;;;20.23;;
40256;SDS011;25977;45.462;9.210;2023-12-20T12:12:38;36.72;;;22.50;;
40256;SDS011;25977;45.462;9.210;2023-12-20T12:15:04;39.95;;;22.20;;
40256;SDS011;25977;45.462;9.210;2023-12-20T12:17:30;34.42;;;23.25;;
40256;SDS011;25977;45.462;9.210;2023-12-20T12:20:03;34.17;;;21.92;;
40256;SDS011;25977;45.462;9.210;2023-12-20T12:22:29;36.30;;;23.48;;
40256;SDS011;25977;45.462;9.210;2023-12-20T12:24:58;29.00;;;21.83;;
40256;SDS011;25977;45.462;9.210;2023-12-20T12:27:33;31.60;;;21.50;;
40256;SDS011;25977;45.462;9.210;2023-12-20T12:30:03;37.30;;;24.63;;
40256;SDS011;25977;45.462;9.210;2023-12-20T12:34:58;42.85;;;24.05;;
40256;SDS011;25977;45.462;9.210;2023-12-20T12:37:23;34.90;;;23.50;;
40256;SDS011;25977;45.462;9.210;2023-12-20T12:39:49;33.58;;;23.58;;
40256;SDS011;25977;45.462;9.210;2023-12-20T12:42:15;31.67;;;21.65;;
40256;SDS011;25977;45.462;9.210;2023-12-20T12:44:41;35.75;;;22.40;;
40256;SDS011;25977;45.462;9.210;2023-12-20T12:47:06;33.95;;;21.10;;
40256;SDS011;25977;45.462;9.210;2023-12-20T12:49:33;29.63;;;20.73;;
40256;SDS011;25977;45.462;9.210;2023-12-20T12:51:58;53.15;;;22.85;;
40256;SDS011;25977;45.462;9.210;2023-12-20T12:54:24;30.92;;;22.20;;
40256;SDS011;25977;45.462;9.210;2023-12-20T12:56:50;37.05;;;22.00;;
40256;SDS011;25977;45.462;9.210;2023-12-20T12:59:17;33.38;;;21.98;;
40256;SDS011;25977;45.462;9.210;2023-12-20T13:01:43;34.90;;;22.52;;
40256;SDS011;25977;45.462;9.210;2023-12-20T13:04:09;34.72;;;21.70;;
40256;SDS011;25977;45.462;9.210;2023-12-20T13:06:39;38.92;;;22.45;;
40256;SDS011;25977;45.462;9.210;2023-12-20T13:09:07;35.58;;;21.92;;
40256;SDS011;25977;45.462;9.210;2023-12-20T13:11:34;32.65;;;21.45;;
40256;SDS011;25977;45.462;9.210;2023-12-20T13:14:00;31.10;;;22.63;;
40256;SDS011;25977;45.462;9.210;2023-12-20T13:16:26;32.15;;;21.50;;
40256;SDS011;25977;45.462;9.210;2023-12-20T13:18:53;32.30;;;22.00;;
40256;SDS011;25977;45.462;9.210;2023-12-20T13:21:18;34.00;;;20.92;;
40256;SDS011;25977;45.462;9.210;2023-12-20T13:23:44;31.13;;;19.35;;
40256;SDS011;25977;45.462;9.210;2023-12-20T13:26:10;26.27;;;19.58;;
40256;SDS011;25977;45.462;9.210;2023-12-20T13:28:35;30.75;;;19.40;;
40256;SDS011;25977;45.462;9.210;2023-12-20T13:31:01;31.33;;;19.92;;
40256;SDS011;25977;45.462;9.210;2023-12-20T13:33:28;32.85;;;20.73;;
40256;SDS011;25977;45.462;9.210;2023-12-20T13:35:53;32.60;;;21.52;;
40256;SDS011;25977;45.462;9.210;2023-12-20T13:38:19;37.13;;;21.48;;
40256;SDS011;25977;45.462;9.210;2023-12-20T13:40:44;33.17;;;19.90;;
40256;SDS011;25977;45.462;9.210;2023-12-20T13:43:10;34.85;;;21.08;;
40256;SDS011;25977;45.462;9.210;2023-12-20T13:45:37;28.83;;;19.70;;
40256;SDS011;25977;45.462;9.210;2023-12-20T13:48:03;32.58;;;19.23;;
40256;SDS011;25977;45.462;9.210;2023-12-20T13:50:29;28.38;;;19.42;;
40256;SDS011;25977;45.462;9.210;2023-12-20T13:52:55;33.45;;;21.20;;
40256;SDS011;25977;45.462;9.210;2023-12-20T13:55:21;27.60;;;18.55;;
40256;SDS011;25977;45.462;9.210;2023-12-20T13:57:50;25.38;;;18.33;;
40256;SDS011;25977;45.462;9.210;2023-12-20T14:00:16;24.45;;;19.45;;
40256;SDS011;25977;45.462;9.210;2023-12-20T14:02:42;30.77;;;20.95;;
40256;SDS011;25977;45.462;9.210;2023-12-20T14:05:08;35.55;;;18.38;;
40256;SDS011;25977;45.462;9.210;2023-12-20T14:07:35;33.25;;;19.27;;
40256;SDS011;25977;45.462;9.210;2023-12-20T14:10:01;34.00;;;19.80;;
40256;SDS011;25977;45.462;9.210;2023-12-20T14:12:27;34.55;;;20.58;;
40256;SDS011;25977;45.462;9.210;2023-12-20T14:14:52;33.65;;;20.88;;
40256;SDS011;25977;45.462;9.210;2023-12-20T14:17:21;38.45;;;21.30;;
40256;SDS011;25977;45.462;9.210;2023-12-20T14:19:47;28.60;;;20.05;;
40256;SDS011;25977;45.462;9.210;2023-12-20T14:22:12;34.38;;;21.05;;
40256;SDS011;25977;45.462;9.210;2023-12-20T14:24:41;29.27;;;20.73;;